Time;durP1;ratioP1;P1;durP2;ratioP2;P2;SDS_P1;SDS_P2;PMS_P1;PMS_P2;Temp;Humidity;BMP_temperature;BMP_pressure;BME280_temperature;BME280_humidity;BME280_pressure;Samples;Min_cycle;Max_cycle;Signal;HPM_P1;HPM_P2
2022/12/15 00:38:57;;;;;;;33.92;18.23;;;-4.70;52.70;;;-6.65;59.94;100125.28;12183028;19;20046;-83
2022/12/15 00:42:59;;;;;;;32.92;17.65;;;-4.30;53.00;;;-6.79;59.93;100105.75;12181158;19;20014;-83
2022/12/15 00:47:00;;;;;;;32.08;18.13;;;-4.70;52.80;;;-6.74;59.91;100123.53;12176661;19;20015;-83
2022/12/15 00:51:03;;;;;;;36.83;18.45;;;-4.70;52.70;;;-6.66;59.94;100142.19;12177413;19;20020;-83
2022/12/15 01:21:10;;;;;;;29.63;15.13;;;-4.90;52.80;;;-6.83;59.99;100152.25;12180669;19;20359;-84
2022/12/15 01:25:13;;;;;;;35.33;20.63;;;-4.90;52.80;;;-6.80;59.97;100166.66;12190539;19;20963;-83
2022/12/15 01:29:15;;;;;;;32.00;17.93;;;-4.90;52.90;;;-6.80;60.06;100164.97;12186370;19;20014;-83
2022/12/15 01:33:19;;;;;;;32.75;17.17;;;-4.90;52.80;;;-6.88;59.91;100145.44;12193500;19;20042;-83
2022/12/15 01:37:21;;;;;;;30.70;16.92;;;-4.70;52.80;;;-6.82;59.90;100138.72;12188596;19;20015;-83
2022/12/15 01:41:23;;;;;;;33.72;17.08;;;-4.90;52.70;;;-7.07;59.92;100103.88;12206615;19;20315;-84
2022/12/15 01:45:30;;;;;;;27.60;15.23;;;-4.70;52.80;;;-6.86;60.04;100149.69;12204400;19;20386;-83
2022/12/15 01:49:32;;;;;;;27.90;15.60;;;-4.90;52.70;;;-6.94;60.07;100134.44;12207344;19;20029;-83
2022/12/15 01:53:46;;;;;;;28.88;15.18;;;-4.90;52.80;;;-6.91;60.00;100148.84;12204909;19;20051;-83
2022/12/15 01:57:53;;;;;;;29.85;17.25;;;-4.90;52.80;;;-6.98;60.13;100134.41;12206071;19;20006;-83
2022/12/15 02:01:55;;;;;;;24.20;14.68;;;-4.90;52.80;;;-7.06;59.79;100128.44;12202936;19;20022;-84
2022/12/15 02:05:59;;;;;;;34.58;16.40;;;-5.00;52.70;;;-7.27;59.72;100104.59;12207435;19;20018;-84
2022/12/15 02:10:06;;;;;;;28.98;16.75;;;-5.00;52.50;;;-7.15;59.88;100125.00;12200915;19;20403;-84
2022/12/15 02:14:11;;;;;;;30.85;16.98;;;-5.00;52.50;;;-7.53;59.89;100066.41;12215318;19;20007;-84
2022/12/15 02:18:27;;;;;;;24.90;15.35;;;-5.00;52.50;;;-7.21;59.88;100144.38;12213260;19;20440;-84
2022/12/15 02:22:59;;;;;;;26.77;15.50;;;-5.10;52.50;;;-7.08;59.90;100170.69;12212751;19;20023;-84
2022/12/15 02:27:27;;;;;;;30.33;16.00;;;-5.10;52.50;;;-7.35;59.92;100131.59;12216509;19;20843;-84
2022/12/15 02:31:49;;;;;;;27.63;15.15;;;-5.10;52.40;;;-7.28;59.94;100150.25;12209760;19;20033;-84
2022/12/15 02:36:04;;;;;;;28.05;14.45;;;-5.10;52.50;;;-7.38;59.77;100147.63;12213382;19;20033;-83
2022/12/15 02:40:10;;;;;;;28.17;15.27;;;-5.20;52.40;;;-7.32;59.99;100164.56;12211353;19;20123;-84
2022/12/15 02:44:31;;;;;;;23.98;13.93;;;-5.20;52.40;;;-7.35;60.02;100178.06;12211180;19;20018;-84
2022/12/15 02:49:15;;;;;;;24.88;15.23;;;-5.20;52.50;;;-7.26;59.87;100190.00;12213305;19;20037;-84
2022/12/15 02:53:41;;;;;;;25.83;14.57;;;-5.20;52.60;;;-7.23;59.89;100196.81;12216675;19;20049;-84
2022/12/15 02:57:55;;;;;;;25.90;14.38;;;-5.20;52.70;;;-7.27;59.95;100216.19;12212801;19;20415;-83
2022/12/15 03:02:05;;;;;;;28.38;17.08;;;-5.20;52.50;;;-7.42;60.01;100211.00;12160691;19;20014;-83
2022/12/15 03:06:08;;;;;;;22.33;13.43;;;-5.30;52.50;;;-7.33;60.01;100230.50;12183239;19;20010;-83
2022/12/15 03:10:12;;;;;;;28.63;14.70;;;-5.00;52.60;;;-7.40;59.96;100235.53;12193525;19;20375;-83
2022/12/15 03:14:15;;;;;;;28.25;15.48;;;-5.30;52.70;;;-7.33;60.02;100248.28;12189290;19;20019;-83
2022/12/15 03:18:16;;;;;;;32.33;16.23;;;-5.30;52.80;;;-7.33;60.08;100260.94;12189322;19;20018;-83
2022/12/15 03:22:19;;;;;;;25.20;14.70;;;-5.30;52.80;;;-7.43;59.88;100234.63;12181117;19;20303;-83
2022/12/15 03:26:21;;;;;;;26.35;14.68;;;-5.30;52.70;;;-7.36;59.77;100246.56;12184853;19;20043;-83
2022/12/15 03:30:22;;;;;;;26.27;14.60;;;-5.30;52.60;;;-7.40;60.06;100250.75;12179612;19;20035;-84
2022/12/15 03:34:25;;;;;;;26.17;15.32;;;-5.30;52.60;;;-7.37;59.88;100249.91;12177510;19;20390;-83
2022/12/15 03:38:26;;;;;;;30.65;15.23;;;-5.30;52.60;;;-7.79;60.02;100175.13;12175185;19;20104;-83
2022/12/15 03:42:47;;;;;;;32.33;17.58;;;-5.30;52.50;;;-7.44;59.98;100243.94;12174592;19;20109;-83
2022/12/15 03:46:48;;;;;;;28.15;16.30;;;-5.40;52.40;;;-7.42;59.80;100246.50;12175472;19;20038;-82
2022/12/15 03:50:50;;;;;;;32.47;18.50;;;-5.40;52.40;;;-7.73;59.96;100197.16;12170028;19;20280;-83
2022/12/15 03:54:52;;;;;;;32.20;16.80;;;-5.40;52.40;;;-7.45;59.99;100244.78;12170344;19;20022;-82
2022/12/15 03:58:54;;;;;;;32.47;15.40;;;-5.40;52.50;;;-7.61;59.95;100225.19;12169160;19;20014;-83
2022/12/15 04:02:56;;;;;;;34.20;16.45;;;-5.40;52.50;;;-7.58;59.80;100248.03;12170277;19;20662;-83
2022/12/15 04:06:57;;;;;;;29.02;15.05;;;-5.20;52.50;;;-7.56;59.98;100256.47;12168370;19;20019;-83
2022/12/15 04:10:59;;;;;;;28.90;16.45;;;-5.20;52.60;;;-7.55;59.88;100265.81;12170413;19;20460;-83
2022/12/15 04:15:01;;;;;;;28.60;16.50;;;-5.50;52.50;;;-7.53;59.91;100292.03;12168914;19;20307;-83
2022/12/15 04:23:24;;;;;;;30.48;15.35;;;-5.50;52.60;;;-7.59;59.98;100276.72;12167953;19;20024;-82
2022/12/15 05:32:42;;;;;;;31.38;17.17;;;-5.50;52.80;;;-7.61;60.02;100359.53;12149948;19;20345;-83
2022/12/15 05:36:44;;;;;;;27.95;15.35;;;-5.50;52.80;;;-7.64;60.08;100356.94;12151927;19;20023;-82
2022/12/15 05:40:46;;;;;;;34.75;18.58;;;-5.40;52.80;;;-7.59;59.94;100365.44;12147329;19;20324;-82
2022/12/15 05:44:48;;;;;;;31.30;16.02;;;-5.40;52.80;;;-7.65;60.05;100345.94;12149555;19;20014;-83
2022/12/15 05:48:49;;;;;;;32.20;17.08;;;-5.40;52.80;;;-7.54;60.03;100368.03;12148250;19;20524;-83
2022/12/15 05:52:51;;;;;;;29.35;16.90;;;-5.50;52.80;;;-7.63;60.00;100364.56;12150199;19;20019;-83
2022/12/15 05:56:53;;;;;;;34.10;18.08;;;-5.50;52.80;;;-7.57;60.09;100384.06;12148381;19;20014;-82
2022/12/15 06:01:07;;;;;;;30.15;14.57;;;-5.50;53.00;;;-7.46;60.25;100400.25;12144974;19;20022;-82
2022/12/15 06:05:08;;;;;;;25.67;15.10;;;-5.40;53.20;;;-7.59;60.27;100373.94;12149370;19;20954;-83
2022/12/15 06:09:11;;;;;;;25.02;13.90;;;-5.40;53.30;;;-7.36;60.35;100399.56;12151354;19;20394;-83
2022/12/15 06:13:12;;;;;;;25.88;14.18;;;-5.30;53.50;;;-7.29;60.38;100403.03;12147453;19;20042;-82
2022/12/15 06:17:14;;;;;;;28.25;14.73;;;-5.20;53.70;;;-7.35;60.44;100390.25;12147301;19;20424;-82
2022/12/15 06:21:20;;;;;;;29.88;16.90;;;-5.00;53.90;;;-7.17;60.37;100403.16;12141654;19;20014;-83
2022/12/15 06:25:22;;;;;;;25.77;14.38;;;-5.10;54.00;;;-7.10;60.44;100398.16;12167273;19;20494;-83
2022/12/15 06:29:24;;;;;;;28.33;15.55;;;-4.70;54.20;;;-7.02;60.51;100419.38;12162985;19;20473;-82
2022/12/15 06:33:28;;;;;;;30.25;16.00;;;-4.90;54.10;;;-7.02;60.57;100434.59;12170719;19;20030;-83
2022/12/15 06:37:30;;;;;;;30.40;14.60;;;-4.90;54.10;;;-6.88;60.47;100448.31;12166750;19;20037;-83
2022/12/15 06:41:32;;;;;;;29.90;15.48;;;-4.80;54.20;;;-6.86;60.37;100445.78;12161389;19;20856;-83
2022/12/15 06:45:34;;;;;;;30.83;14.32;;;-4.60;54.30;;;-6.81;60.57;100439.06;12161682;19;20014;-82
2022/12/15 06:49:37;;;;;;;31.88;15.80;;;-4.70;54.20;;;-6.80;60.36;100416.25;12145479;19;20298;-82
2022/12/15 06:53:40;;;;;;;34.78;17.17;;;-4.70;54.20;;;-6.80;60.43;100426.41;12140201;19;20545;-82
2022/12/15 06:57:42;;;;;;;29.38;14.77;;;-4.60;54.20;;;-6.79;60.54;100423.03;12142354;19;20359;-83
2022/12/15 07:01:43;;;;;;;26.45;15.18;;;-4.60;54.20;;;-6.61;60.55;100459.59;12145041;19;20395;-84
2022/12/15 07:05:46;;;;;;;29.55;15.65;;;-4.50;54.30;;;-6.58;60.54;100468.09;12152314;19;20014;-83
2022/12/15 07:09:48;;;;;;;29.35;14.93;;;-4.50;54.20;;;-6.62;60.57;100452.81;12146471;19;20389;-83
2022/12/15 07:13:51;;;;;;;27.90;14.90;;;-4.20;54.40;;;-6.60;60.52;100451.16;12147461;19;20019;-82
2022/12/15 07:17:56;;;;;;;25.70;15.33;;;-4.40;54.20;;;-6.59;60.64;100453.69;12142295;19;20299;-83
2022/12/15 07:21:58;;;;;;;27.83;15.80;;;-4.30;54.30;;;-6.43;60.57;100479.25;12136785;19;20019;-83
2022/12/15 07:26:08;;;;;;;35.47;17.95;;;-4.30;54.20;;;-6.52;60.57;100477.47;12170967;19;20342;-82
2022/12/15 07:30:11;;;;;;;28.63;14.55;;;-4.30;54.10;;;-6.41;60.65;100497.88;12171640;19;20327;-83
2022/12/15 07:34:13;;;;;;;24.48;13.23;;;-4.30;54.10;;;-6.51;60.69;100484.25;12171743;19;20026;-83
2022/12/15 07:38:15;;;;;;;21.77;12.93;;;-4.30;54.10;;;-6.34;60.58;100508.13;12166944;19;20010;-82
2022/12/15 07:42:17;;;;;;;23.77;12.88;;;-4.20;54.10;;;-6.31;60.53;100518.31;12164612;19;20034;-83
2022/12/15 07:46:19;;;;;;;32.33;15.95;;;-4.20;54.10;;;-6.38;60.64;100505.53;12167849;19;20129;-82
2022/12/15 07:50:20;;;;;;;32.53;16.75;;;-4.20;54.10;;;-6.35;60.56;100496.25;12164980;19;20019;-82
2022/12/15 07:54:23;;;;;;;30.45;14.23;;;-4.20;54.00;;;-6.35;60.55;100508.09;12165788;19;20311;-81
2022/12/15 07:58:27;;;;;;;27.25;14.65;;;-4.10;53.90;;;-6.39;60.53;100507.22;12166754;19;20372;-82
2022/12/15 08:02:28;;;;;;;26.87;14.80;;;-4.10;53.80;;;-6.27;60.67;100545.44;12164936;19;20050;-82
2022/12/15 08:06:31;;;;;;;30.00;15.55;;;-4.10;53.80;;;-6.59;60.56;100480.75;12168533;19;20018;-82
2022/12/15 08:10:33;;;;;;;34.22;17.17;;;-4.10;53.80;;;-6.31;60.55;100530.19;12161951;19;20476;-82
2022/12/15 08:14:35;;;;;;;27.13;13.73;;;-4.00;53.80;;;-6.22;60.56;100547.19;12165626;19;20483;-82
2022/12/15 08:18:38;;;;;;;24.75;14.32;;;-4.10;53.80;;;-6.27;60.64;100540.38;12165484;19;20287;-81
2022/12/15 08:22:40;;;;;;;24.95;15.35;;;-4.10;53.70;;;-6.24;60.67;100554.78;12165200;19;20386;-81
2022/12/15 08:26:43;;;;;;;24.42;14.63;;;-4.10;53.70;;;-6.28;60.56;100543.75;12161742;19;20021;-82
2022/12/15 08:30:44;;;;;;;28.45;14.85;;;-4.10;53.70;;;-6.24;60.55;100557.34;12163987;19;20029;-82
2022/12/15 08:34:48;;;;;;;27.63;15.52;;;-3.80;53.90;;;-6.20;60.63;100570.94;12160582;19;20129;-84
2022/12/15 08:38:50;;;;;;;28.50;15.38;;;-4.00;53.80;;;-6.12;60.65;100582.88;12159020;19;21010;-82
2022/12/15 08:42:53;;;;;;;31.40;15.85;;;-4.00;53.90;;;-6.22;60.62;100555.66;12155487;19;20045;-83
2022/12/15 08:46:55;;;;;;;35.90;17.65;;;-4.00;53.90;;;-6.03;60.60;100584.66;12159123;19;20356;-83
2022/12/15 08:50:58;;;;;;;22.92;14.45;;;-4.00;54.10;;;-6.07;60.62;100570.22;12131658;19;20848;-82
2022/12/15 08:54:59;;;;;;;25.13;13.95;;;-3.90;54.10;;;-6.25;60.70;100543.78;12102263;19;20303;-82
2022/12/15 08:59:02;;;;;;;33.35;18.75;;;-3.90;54.20;;;-5.92;60.67;100597.44;12101856;19;20485;-86
2022/12/15 09:03:04;;;;;;;44.17;20.33;;;-3.50;54.40;;;-5.88;60.81;100600.03;12106013;19;20314;-85
2022/12/15 09:07:06;;;;;;;25.08;14.60;;;-3.60;54.40;;;-5.85;60.67;100605.16;12108318;19;20895;-82
2022/12/15 09:11:08;;;;;;;27.92;15.50;;;-3.60;54.50;;;-5.82;60.81;100610.25;12103665;19;20064;-82
2022/12/15 09:15:10;;;;;;;33.15;18.40;;;-3.80;54.40;;;-5.74;60.73;100609.50;12104439;19;20578;-83
2022/12/15 09:19:12;;;;;;;33.10;18.35;;;-3.70;54.50;;;-5.74;60.67;100586.59;12107828;19;20011;-83
2022/12/15 09:23:14;;;;;;;27.25;15.07;;;-3.60;54.60;;;-5.73;60.63;100601.00;12103041;19;20296;-83
2022/12/15 09:27:15;;;;;;;22.83;14.65;;;-3.60;54.50;;;-5.94;60.70;100543.22;12106395;19;20406;-82
2022/12/15 09:31:35;;;;;;;34.83;18.50;;;-3.50;54.60;;;-5.91;60.85;100535.59;12101688;19;20858;-84
2022/12/15 09:35:37;;;;;;;32.20;16.45;;;-3.50;54.60;;;-5.47;60.75;100596.16;12104836;19;20435;-83
2022/12/15 09:39:39;;;;;;;31.73;15.48;;;-3.30;54.70;;;-5.42;60.74;100597.91;12153519;19;20437;-84
2022/12/15 09:43:52;;;;;;;22.98;13.25;;;-3.40;54.70;;;-5.37;60.77;100597.94;12147335;19;20018;-84
2022/12/15 09:48:09;;;;;;;26.92;13.25;;;-3.30;54.70;;;-5.31;60.65;100602.22;12141459;19;20383;-83
2022/12/15 09:52:26;;;;;;;25.17;14.98;;;-3.30;54.70;;;-5.60;60.77;100534.16;12125199;19;20395;-83
2022/12/15 09:56:55;;;;;;;28.05;14.57;;;-3.20;54.80;;;-5.30;60.94;100575.91;12124229;19;20443;-83
2022/12/15 10:01:24;;;;;;;36.75;18.33;;;-3.10;54.80;;;-5.16;60.99;100590.47;12117179;19;20879;-83
2022/12/15 10:05:52;;;;;;;36.72;19.13;;;-3.10;54.90;;;-5.00;61.03;100605.81;12120548;19;20029;-82
2022/12/15 10:09:54;;;;;;;26.67;14.82;;;-3.00;55.10;;;-5.00;60.96;100604.09;12118451;19;20526;-83
2022/12/15 10:14:06;;;;;;;30.40;13.88;;;-2.90;55.10;;;-4.86;60.96;100610.97;12115189;19;20022;-83
2022/12/15 10:18:23;;;;;;;29.40;15.43;;;-2.80;55.20;;;-4.74;60.95;100624.66;12098789;19;20391;-82
2022/12/15 10:22:35;;;;;;;28.75;14.68;;;-2.80;55.20;;;-4.72;61.05;100607.69;12086624;19;20469;-82
2022/12/15 10:26:40;;;;;;;21.02;12.13;;;-2.60;55.20;;;-4.55;60.97;100610.31;12090095;19;20399;-82
2022/12/15 10:30:58;;;;;;;25.07;14.03;;;-2.50;55.20;;;-4.59;61.06;100605.19;12091742;19;20484;-83
2022/12/15 10:35:00;;;;;;;23.33;12.20;;;-2.40;55.30;;;-4.37;61.13;100618.88;12116112;19;20295;-82
2022/12/15 10:39:01;;;;;;;24.10;12.13;;;-2.10;55.30;;;-4.60;61.18;100568.66;12130280;19;20038;-82
2022/12/15 10:43:28;;;;;;;27.70;15.30;;;-2.30;55.30;;;-4.27;61.20;100607.84;12142579;19;20450;-82
2022/12/15 10:47:31;;;;;;;29.50;15.95;;;-2.20;55.30;;;-4.22;61.18;100599.38;12148057;19;20399;-83
2022/12/15 10:51:43;;;;;;;30.05;15.32;;;-2.10;55.40;;;-4.21;61.13;100584.97;12135059;19;20106;-82
2022/12/15 10:55:45;;;;;;;36.58;18.83;;;-2.00;55.40;;;-4.06;61.10;100597.72;12130673;19;20467;-83
2022/12/15 10:59:48;;;;;;;27.27;15.48;;;-2.10;55.40;;;-3.92;61.18;100614.75;12107439;19;20019;-83
2022/12/15 11:03:51;;;;;;;27.85;14.07;;;-1.80;55.50;;;-3.86;61.17;100623.28;12107428;19;20336;-82
2022/12/15 11:08:12;;;;;;;22.55;13.80;;;-1.80;55.40;;;-3.92;61.08;100597.75;12111875;19;20338;-82
2022/12/15 11:16:55;;;;;;;31.52;16.83;;;-1.60;55.50;;;-3.72;61.33;100608.00;12109105;19;20426;-82
2022/12/15 11:21:16;;;;;;;23.20;13.52;;;-1.50;55.60;;;-3.49;61.26;100630.13;12118637;19;20035;-82
2022/12/15 11:25:29;;;;;;;23.75;14.00;;;-1.40;55.50;;;-3.43;61.32;100638.66;12122657;19;20038;-83
2022/12/15 11:30:13;;;;;;;22.80;13.48;;;-1.30;55.60;;;-3.35;61.24;100641.19;12125260;19;20280;-83
2022/12/15 11:34:44;;;;;;;26.45;14.77;;;-1.30;55.60;;;-3.57;61.15;100596.94;12124591;19;20030;-82
2022/12/15 11:38:58;;;;;;;22.17;13.55;;;-1.00;55.70;;;-3.71;61.11;100553.56;12142672;19;20029;-82
2022/12/15 11:43:51;;;;;;;23.30;13.60;;;-1.10;55.60;;;-3.10;61.40;100639.50;12250101;19;20022;-82
2022/12/15 11:48:16;;;;;;;20.48;12.10;;;-1.00;55.60;;;-3.14;61.28;100628.41;12259178;19;20018;-82
2022/12/15 11:53:14;;;;;;;26.23;13.75;;;-1.00;55.60;;;-2.96;61.55;100644.59;12255545;19;20018;-82
2022/12/15 11:57:56;;;;;;;20.05;11.63;;;-0.90;55.60;;;-2.87;61.36;100636.06;12263006;19;20122;-82
2022/12/15 12:02:18;;;;;;;20.20;11.02;;;-0.80;55.70;;;-2.79;61.44;100630.06;12262273;19;20050;-83
2022/12/15 12:06:49;;;;;;;22.95;12.02;;;-0.60;55.80;;;-2.75;61.55;100624.09;12263097;19;20024;-82
2022/12/15 12:11:18;;;;;;;20.95;11.77;;;-0.70;55.70;;;-2.71;61.42;100607.91;12260869;19;20357;-81
2022/12/15 12:15:58;;;;;;;20.00;10.27;;;-0.70;55.70;;;-3.03;61.30;100539.00;12260736;19;20019;-83
2022/12/15 12:20:17;;;;;;;17.40;10.85;;;-0.40;55.80;;;-2.74;61.44;100578.97;12259200;19;20011;-82
2022/12/15 12:24:38;;;;;;;20.33;11.60;;;-0.40;55.80;;;-2.53;61.41;100607.00;12264205;19;20014;-82
2022/12/15 12:29:05;;;;;;;19.15;10.10;;;-0.30;55.80;;;-2.28;61.54;100627.34;12263228;19;20019;-83
2022/12/15 12:33:23;;;;;;;20.17;11.80;;;-0.20;55.80;;;-2.17;61.42;100629.88;12279046;19;20014;-83
2022/12/15 12:37:36;;;;;;;17.42;9.85;;;-0.10;55.80;;;-2.32;61.45;100600.09;12275844;19;20025;-82
2022/12/15 12:42:21;;;;;;;20.10;11.20;;;0.00;55.90;;;-2.28;61.45;100587.28;12260029;19;20643;-83
2022/12/15 12:46:39;;;;;;;18.00;11.20;;;0.10;55.80;;;-1.92;61.56;100626.31;12262570;19;20034;-83
2022/12/15 12:50:41;;;;;;;22.63;12.27;;;0.30;55.90;;;-1.93;61.55;100624.63;12257704;19;20035;-83
2022/12/15 12:55:18;;;;;;;21.52;12.55;;;0.20;55.90;;;-1.85;61.50;100633.09;12256167;19;20015;-83
2022/12/15 12:59:29;;;;;;;21.23;12.30;;;0.30;56.00;;;-1.67;61.53;100654.34;12249350;19;20015;-83
2022/12/15 13:03:37;;;;;;;26.70;15.05;;;0.40;56.00;;;-1.66;61.60;100638.97;12256639;19;20006;-83
2022/12/15 13:07:40;;;;;;;27.77;14.20;;;0.60;56.20;;;-2.07;61.64;100563.31;12257370;19;20384;-82
2022/12/15 13:11:57;;;;;;;24.90;14.63;;;0.40;56.30;;;-1.44;61.51;100655.03;12252113;19;20014;-82
2022/12/15 13:16:14;;;;;;;23.33;13.90;;;0.60;56.20;;;-1.37;61.45;100648.16;12257942;19;20512;-83
2022/12/15 13:20:24;;;;;;;33.50;17.98;;;0.60;56.20;;;-1.38;61.61;100625.94;12255721;19;20010;-82
2022/12/15 13:24:36;;;;;;;31.75;15.82;;;0.70;56.30;;;-1.23;61.45;100630.97;12250859;19;20548;-83
2022/12/15 13:28:43;;;;;;;25.92;13.55;;;0.70;56.20;;;-1.17;61.42;100633.47;12251139;19;20021;-82
2022/12/15 13:33:18;;;;;;;30.50;17.20;;;0.80;56.20;;;-1.18;61.34;100616.41;12248664;19;20011;-82
2022/12/15 13:37:49;;;;;;;26.70;13.82;;;0.90;56.40;;;-1.13;61.49;100621.50;12245827;19;20018;-82
2022/12/15 13:41:51;;;;;;;28.63;14.80;;;0.90;56.30;;;-1.00;61.44;100630.78;12244449;19;20499;-82
2022/12/15 13:46:15;;;;;;;23.30;12.20;;;1.00;56.30;;;-1.09;61.53;100612.91;12247953;19;20421;-82
2022/12/15 13:50:38;;;;;;;20.80;12.57;;;1.00;56.30;;;-0.95;61.45;100623.03;12248397;19;20015;-82
2022/12/15 13:54:43;;;;;;;24.88;13.07;;;1.00;56.20;;;-0.92;61.55;100630.66;12209303;19;20459;-82
2022/12/15 13:58:55;;;;;;;25.48;13.98;;;1.10;56.20;;;-0.85;61.52;100631.47;12143765;19;20014;-82
2022/12/15 14:03:05;;;;;;;22.15;13.13;;;1.10;56.10;;;-0.88;61.57;100628.94;12144223;19;20989;-82
2022/12/15 14:07:08;;;;;;;21.92;12.65;;;1.10;56.10;;;-0.84;61.53;100631.44;12148653;19;20082;-82
2022/12/15 14:11:32;;;;;;;21.08;12.02;;;1.20;56.10;;;-0.81;61.33;100641.69;12152599;19;20368;-82
2022/12/15 14:15:39;;;;;;;22.90;11.57;;;1.20;56.00;;;-0.84;61.53;100635.72;12109343;19;20577;-83
2022/12/15 14:19:44;;;;;;;24.52;12.07;;;1.20;56.00;;;-0.79;61.40;100647.63;12093650;19;20042;-82
2022/12/15 14:23:45;;;;;;;21.60;12.30;;;1.20;55.90;;;-0.93;61.40;100622.13;12098564;19;20022;-82
2022/12/15 14:27:48;;;;;;;23.30;11.80;;;1.20;55.80;;;-0.90;61.47;100634.91;12099130;19;20024;-82
2022/12/15 14:31:56;;;;;;;17.60;11.18;;;1.20;55.80;;;-0.93;61.43;100627.25;12097168;19;20625;-83
2022/12/15 14:36:00;;;;;;;23.35;13.18;;;1.20;55.80;;;-0.83;61.30;100645.13;12092608;19;20379;-83
2022/12/15 14:40:01;;;;;;;20.75;12.13;;;1.10;55.70;;;-0.97;61.31;100633.31;12093849;19;20367;-83
2022/12/15 14:44:35;;;;;;;20.20;12.52;;;1.40;55.70;;;-0.89;61.18;100651.19;12093300;19;20054;-83
2022/12/15 14:49:14;;;;;;;21.45;12.07;;;1.10;55.50;;;-1.03;61.21;100643.59;12096734;19;20367;-82
2022/12/15 14:53:19;;;;;;;23.20;12.20;;;1.00;55.40;;;-1.38;61.12;100587.53;12091842;19;20515;-82
2022/12/15 14:57:39;;;;;;;24.65;12.27;;;1.00;55.40;;;-1.04;61.28;100651.31;12093897;19;20763;-83
2022/12/15 15:02:26;;;;;;;22.05;12.50;;;0.90;55.30;;;-1.03;61.27;100655.56;12089672;19;20423;-83
2022/12/15 15:06:37;;;;;;;20.27;10.73;;;0.90;55.30;;;-1.10;61.36;100649.66;12102759;19;20870;-83
2022/12/15 15:10:40;;;;;;;22.55;12.60;;;0.90;55.40;;;-1.20;61.15;100638.63;12092516;19;20462;-83
2022/12/15 15:15:02;;;;;;;27.27;14.77;;;0.80;55.30;;;-1.18;61.07;100651.44;12088725;19;20366;-83
2022/12/15 15:23:12;;;;;;;38.88;21.48;;;0.70;55.50;;;-1.17;61.09;100663.34;12103326;19;20027;-83
2022/12/15 15:27:21;;;;;;;42.80;22.38;;;0.70;55.20;;;-1.19;61.16;100659.94;12134164;19;20023;-83
2022/12/15 15:31:33;;;;;;;39.72;21.50;;;0.90;55.30;;;-1.31;61.03;100654.94;12092030;19;20544;-83
2022/12/15 15:35:35;;;;;;;48.55;23.38;;;0.60;55.10;;;-1.38;60.88;100649.00;12090587;19;20027;-83
2022/12/15 15:39:36;;;;;;;33.95;18.02;;;0.60;55.00;;;-1.41;60.92;100654.16;12091657;19;20440;-83
2022/12/15 15:43:38;;;;;;;26.83;14.90;;;0.50;54.80;;;-1.56;60.87;100640.59;12104634;19;20419;-83
2022/12/15 15:47:49;;;;;;;23.27;12.98;;;0.40;54.70;;;-1.63;60.91;100630.41;12121435;19;20542;-83
2022/12/15 15:51:53;;;;;;;24.35;12.60;;;0.30;54.60;;;-1.61;60.88;100644.91;12109817;19;20380;-83
2022/12/15 15:55:56;;;;;;;22.15;11.73;;;0.20;54.60;;;-1.64;60.78;100665.41;12108798;19;20041;-83
2022/12/15 15:59:57;;;;;;;20.80;11.25;;;0.10;54.60;;;-1.79;60.91;100650.97;12101285;19;20042;-83
2022/12/15 16:03:59;;;;;;;17.73;10.55;;;0.10;54.70;;;-1.76;60.78;100647.56;12151358;19;20019;-83
2022/12/15 16:08:03;;;;;;;19.42;11.13;;;0.00;54.70;;;-2.11;60.91;100604.25;12165416;19;20019;-83
2022/12/15 16:12:05;;;;;;;24.20;12.40;;;0.00;54.80;;;-2.15;60.73;100612.81;12165250;19;20380;-83
2022/12/15 16:16:18;;;;;;;21.13;13.05;;;0.00;54.90;;;-1.93;60.92;100665.56;12165321;19;20014;-82
2022/12/15 16:20:24;;;;;;;23.48;13.70;;;0.00;54.90;;;-1.96;60.95;100663.03;12157648;19;20018;-82
2022/12/15 16:24:26;;;;;;;22.90;13.13;;;-0.10;54.90;;;-1.92;61.01;100672.38;12160972;19;20858;-82
2022/12/15 16:28:31;;;;;;;21.83;12.75;;;0.00;55.00;;;-1.96;60.76;100673.25;12171811;19;20026;-83
2022/12/15 16:32:33;;;;;;;25.92;14.05;;;0.10;55.10;;;-1.91;60.84;100674.09;12166338;19;20525;-82
2022/12/15 16:36:34;;;;;;;22.23;13.63;;;-0.20;55.00;;;-2.08;60.79;100651.16;12158730;19;20586;-82
2022/12/15 16:40:37;;;;;;;20.38;12.70;;;-0.20;55.00;;;-1.95;61.00;100687.75;12162675;19;20025;-81
2022/12/15 16:44:39;;;;;;;19.08;12.45;;;-0.20;55.00;;;-2.04;60.90;100675.00;12163337;19;20050;-83
2022/12/15 16:48:42;;;;;;;21.98;12.57;;;-0.20;55.00;;;-1.98;60.73;100699.72;12159208;19;20058;-82
2022/12/15 16:52:49;;;;;;;18.35;11.90;;;-0.20;55.00;;;-2.05;60.89;100691.22;12161228;19;20497;-82
2022/12/15 16:56:56;;;;;;;21.38;13.27;;;-0.20;55.00;;;-2.10;60.87;100695.50;12164628;19;20018;-82
2022/12/15 17:00:57;;;;;;;21.80;12.73;;;-0.30;54.90;;;-2.37;60.92;100646.16;12159092;19;20573;-82
2022/12/15 17:04:59;;;;;;;22.45;12.50;;;-0.30;54.90;;;-2.56;60.83;100636.84;12165960;19;20388;-83
2022/12/15 17:09:02;;;;;;;19.75;13.20;;;-0.30;54.90;;;-2.10;60.78;100709.13;12160596;19;20031;-82
2022/12/15 17:13:30;;;;;;;18.73;12.32;;;-0.30;54.80;;;-2.12;60.80;100717.66;12160958;19;20011;-82
2022/12/15 17:17:32;;;;;;;21.15;11.57;;;-0.30;54.80;;;-2.12;60.86;100725.34;12162575;19;20018;-82
2022/12/15 17:21:49;;;;;;;18.15;11.80;;;-0.30;54.80;;;-2.26;60.70;100721.13;12157556;19;20019;-82
2022/12/15 17:25:52;;;;;;;19.95;11.52;;;-0.40;54.70;;;-2.22;60.96;100725.34;12163157;19;20311;-82
2022/12/15 17:29:57;;;;;;;28.50;13.80;;;-0.40;54.70;;;-2.37;60.70;100720.31;12159730;19;20390;-82
2022/12/15 17:33:59;;;;;;;24.75;13.20;;;-0.40;54.60;;;-2.47;60.69;100714.34;12157942;19;20033;-83
2022/12/15 17:38:00;;;;;;;21.58;11.68;;;-0.50;54.70;;;-2.30;60.77;100759.47;12157420;19;20436;-83
2022/12/15 17:42:09;;;;;;;21.85;12.35;;;-0.50;54.60;;;-2.45;60.69;100747.59;12156109;19;20034;-83
2022/12/15 17:46:11;;;;;;;22.98;12.10;;;-0.50;54.50;;;-2.35;60.73;100769.75;12159867;19;20015;-82
2022/12/15 17:50:13;;;;;;;20.65;11.93;;;-0.60;54.50;;;-2.41;60.78;100763.75;12158813;19;20041;-84
2022/12/15 17:54:18;;;;;;;21.45;11.98;;;-0.60;54.50;;;-2.43;60.70;100766.34;12156592;19;20408;-83
2022/12/15 17:58:25;;;;;;;18.02;10.38;;;-0.60;54.50;;;-2.62;60.58;100744.19;12145923;19;20101;-83
2022/12/15 18:02:27;;;;;;;20.20;10.95;;;-0.70;54.40;;;-2.69;60.48;100739.09;12150156;19;20027;-84
2022/12/15 18:06:28;;;;;;;17.33;10.65;;;-0.80;54.30;;;-2.62;60.55;100739.94;12146383;19;20280;-83
2022/12/15 18:10:35;;;;;;;20.08;10.70;;;-0.80;54.20;;;-3.01;60.60;100694.81;12168322;19;20739;-83
2022/12/15 18:14:37;;;;;;;18.67;10.30;;;-0.90;54.20;;;-2.69;60.70;100764.66;12152609;19;20030;-83
2022/12/15 18:18:41;;;;;;;19.63;10.68;;;-0.90;54.20;;;-2.81;60.64;100749.31;12150444;19;20018;-83
2022/12/15 18:22:44;;;;;;;17.58;10.00;;;-1.00;54.30;;;-2.76;60.70;100757.81;12160223;19;20264;-83
2022/12/15 18:26:46;;;;;;;19.23;9.90;;;-1.00;54.40;;;-2.83;60.69;100740.81;12160852;19;20015;-83
2022/12/15 18:30:51;;;;;;;18.90;11.07;;;-1.00;54.40;;;-2.99;60.57;100728.88;12158653;19;20324;-83
2022/12/15 18:34:53;;;;;;;17.20;9.77;;;-1.00;54.40;;;-2.97;60.50;100738.25;12158570;19;20028;-84
2022/12/15 18:38:55;;;;;;;17.73;10.30;;;-1.10;54.30;;;-2.93;60.51;100767.19;12154821;19;20018;-83
2022/12/15 18:42:57;;;;;;;17.77;10.25;;;-1.10;54.20;;;-2.95;60.58;100776.56;12160357;19;20042;-84
2022/12/15 18:46:59;;;;;;;19.08;9.88;;;-1.10;54.20;;;-2.97;60.48;100779.13;12154930;19;20383;-83
2022/12/15 18:51:11;;;;;;;20.65;10.80;;;-1.20;54.20;;;-3.00;60.53;100774.00;12141061;19;20018;-83
2022/12/15 18:55:21;;;;;;;22.08;11.43;;;-1.20;54.30;;;-3.13;60.42;100746.75;12159613;19;20019;-83
2022/12/15 18:59:22;;;;;;;18.55;10.63;;;-1.30;54.20;;;-3.15;60.42;100743.34;12170635;19;20817;-83
2022/12/15 19:03:25;;;;;;;22.02;10.95;;;-1.30;54.20;;;-3.12;60.53;100764.63;12169385;19;20025;-83
2022/12/15 19:07:27;;;;;;;18.00;10.35;;;-1.30;54.20;;;-3.27;60.63;100748.41;12165203;19;20029;-83